Flight Track Log - Related Links

Times and Time Zones

All times are in EDT time to prevent confusion due to time zone crossing. See the BAW2648 flight status page for this flight to view local times or setup timezone preferences in your user account.

Time Position Orientation Groundspeed Altitude Reporting Facility
EDT Latitude Longitude Course Direction KTS MPH feet Rate Location/Type
Wed 02:20:42 PM 51.1383 -0.2654 273° West 212 244 300  Level FlightAware UK
Wed 02:21:00 PM 51.1391 -0.2937 273° West 224 258 1,000 2,500 Climbing FlightAware UK
Wed 02:21:42 PM 51.1758 -0.3186 337° Northwest 246 283 2,800 2,600 Climbing FlightAware UK
Wed 02:22:00 PM 51.1931 -0.3017 32° Northeast 250 288 3,600 2,750 Climbing FlightAware UK
Wed 02:22:30 PM 51.2026 -0.2461 75° East 262 302 5,000 2,571 Climbing FlightAware UK
Wed 02:22:49 PM 51.2028 -0.2088 89° East 272 313 5,700 2,233 Climbing FlightAware UK
Wed 02:23:13 PM 51.2029 -0.1567 90° East 284 327 6,600 2,444 Climbing FlightAware UK
Wed 02:23:43 PM 51.2030 -0.0900 90° East 286 329 7,900 1,462 Climbing FlightAware UK
Wed 02:24:31 PM 51.2034 0.0295 90° East 342 394 8,500 500 Climbing FlightAware UK
Wed 02:24:55 PM 51.2040 0.0952 89° East 354 407 8,500  Level FlightAware UK
Wed 02:25:43 PM 51.2055 0.2272 89° East 352 405 8,500 182 Level FlightAware UK
Wed 02:26:01 PM 51.2058 0.2765 89° East 354 407 8,700 1,000 Climbing FlightAware UK
Wed 02:26:31 PM 51.2066 0.3598 89° East 360 414 9,300 1,125 Climbing FlightAware UK
Wed 02:26:49 PM 51.2074 0.4116 89° East 362 417 9,600 1,500 Climbing FlightAware UK
Wed 02:27:07 PM 51.2078 0.4626 89° East 362 417 10,200 2,667 Climbing FlightAware UK
Wed 02:27:25 PM 51.2082 0.5142 89° East 364 419 11,200 3,000 Climbing FlightAware UK
Wed 02:27:43 PM 51.2084 0.5650 90° East 366 421 12,000 2,286 Climbing FlightAware UK
Wed 02:28:07 PM 51.2080 0.6360 90° East 378 435 12,800 2,143 Climbing FlightAware UK
Wed 02:28:25 PM 51.2051 0.6913 95° East 388 447 13,500 2,714 Climbing FlightAware UK
Wed 02:28:49 PM 51.2011 0.7641 95° East 390 449 14,700 3,000 Climbing FlightAware UK
Wed 02:29:07 PM 51.1981 0.8200 95° East 392 451 15,600 2,833 Climbing FlightAware UK
Wed 02:29:25 PM 51.1953 0.8757 95° East 396 456 16,400 2,500 Climbing FlightAware UK
Wed 02:29:43 PM 51.1924 0.9315 95° East 398 458 17,100 2,333 Climbing FlightAware UK
Wed 02:30:01 PM 51.1899 0.9887 94° East 402 463 17,800 2,333 Climbing FlightAware UK
Wed 02:30:19 PM 51.1871 1.0459 94° East 408 470 18,500 2,167 Climbing FlightAware UK
Wed 02:30:37 PM 51.1843 1.1046 94° East 412 474 19,100 2,000 Climbing FlightAware UK
Wed 02:30:55 PM 51.1814 1.1626 95° East 414 476 19,700 1,833 Climbing FlightAware UK
Wed 02:31:13 PM 51.1783 1.2226 95° East 418 481 20,200 1,667 Climbing FlightAware UK
Wed 02:31:31 PM 51.1752 1.2830 95° East 424 488 20,700 1,500 Climbing FlightAware UK
Wed 02:31:49 PM 51.1721 1.3441 95° East 422 486 21,100 1,333 Climbing FlightAware UK
Wed 02:32:25 PM 51.1655 1.4700 95° East 434 499 21,900 1,333 Climbing FlightAware UK
Wed 02:32:43 PM 51.1621 1.5347 95° East 438 504 22,300 1,500 Climbing FlightAware UK
Wed 02:33:01 PM 51.1567 1.5998 97° East 440 506 22,800 1,714 Climbing FlightAware UK
Wed 02:33:32 PM 51.1306 1.7057 111° Southeast 444 511 23,700 1,745 Climbing FlightAware UK
Wed 02:33:56 PM 51.1080 1.7901 113° Southeast 446 513 24,400 1,750 Climbing FlightAware UK
Wed 02:34:20 PM 51.0863 1.8738 112° Southeast 446 513 25,100 1,714 Climbing FlightAware UK
Wed 02:34:38 PM 51.0698 1.9382 112° Southeast 448 516 25,600 1,833 Climbing FlightAware UK
Wed 02:34:56 PM 51.0537 2.0012 112° Southeast 446 513 26,200 2,000 Climbing FlightAware UK
Wed 02:35:14 PM 51.0371 2.0656 112° Southeast 446 513 26,800 2,167 Climbing FlightAware UK
Wed 02:35:32 PM 51.0201 2.1277 114° Southeast 442 509 27,500 2,167 Climbing FlightAware UK
Wed 02:35:50 PM 51.0028 2.1900 114° Southeast 440 506 28,100 1,833 Climbing FlightAware UK
Wed 02:36:08 PM 50.9853 2.2520 114° Southeast 434 499 28,600 1,429 Climbing FlightAware UK
Wed 02:36:32 PM 50.9621 2.3340 114° Southeast 432 497 29,100 1,143 Climbing FlightAware UK
Wed 02:36:50 PM 50.9450 2.3960 114° Southeast 438 504 29,400 1,167 Climbing FlightAware UK
Wed 02:37:08 PM 50.9280 2.4577 114° Southeast 438 504 29,800 1,333 Climbing FlightAware UK
Wed 02:37:26 PM 50.9105 2.5207 114° Southeast 438 504 30,200 1,167 Climbing FlightAware UK
Wed 02:37:44 PM 50.8931 2.5829 114° Southeast 436 502 30,500 1,167 Climbing FlightAware UK
Wed 02:38:02 PM 50.8759 2.6453 114° Southeast 436 502 30,900 1,429 Climbing FlightAware UK
Wed 02:38:26 PM 50.8530 2.7291 113° Southeast 436 502 31,500 857 Climbing FlightAware UK
Wed 02:38:44 PM 50.8361 2.7914 113° Southeast 440 506 31,500  Level FlightAware UK
Wed 02:40:02 PM 50.7614 3.0596 114° Southeast 438 504 31,500  Level FlightAware UK
Wed 02:40:26 PM 50.7378 3.1412 115° Southeast 436 502 31,500  Level FlightAware UK
Wed 02:40:44 PM 50.7197 3.2029 115° Southeast 436 502 31,500  Level FlightAware UK
Wed 02:41:02 PM 50.7018 3.2637 115° Southeast 436 502 31,500  Level FlightAware UK
Wed 02:41:26 PM 50.6780 3.3448 115° Southeast 436 502 31,500  Level FlightAware UK
Wed 02:41:50 PM 50.6544 3.4259 115° Southeast 438 504 31,500  Level FlightAware UK
Wed 02:42:08 PM 50.6368 3.4864 115° Southeast 438 504 31,500  Level FlightAware UK
Wed 02:42:56 PM 50.5899 3.6476 115° Southeast 442 509 31,500  Level FlightAware UK
Wed 02:43:20 PM 50.5664 3.7279 115° Southeast 440 506 31,500  Level FlightAware UK
Wed 02:43:50 PM 50.5369 3.8278 115° Southeast 440 506 31,500  Level FlightAware UK
Wed 02:46:15 PM 50.3962 4.3030 115° Southeast 1 1 31,500  Level FlightAware UK
Wed 02:46:57 PM 50.3554 4.4400 115° Southeast 1 1 31,500  Level FlightAware UK
Wed 02:47:21 PM 50.3313 4.5158 116° Southeast 1 1 31,500  Level FlightAware UK
Wed 02:47:51 PM 50.3009 4.6101 117° Southeast 1 1 31,500  Level FlightAware UK
Wed 02:48:15 PM 50.2781 4.6879 115° Southeast 1 1 31,500  Level FlightAware UK
Wed 02:50:00 PM 50.1847 4.8986 125° Southeast  Level Estimated
Wed 02:57:00 PM 49.8075 5.7332 125° Southeast  Level Estimated
Wed 02:58:00 PM 49.7531 5.8513 125° Southeast  Level Estimated
Wed 02:59:00 PM 49.6986 5.9692 126° Southeast  Level Estimated
Wed 03:00:00 PM 49.6440 6.0869 126° Southeast  Level Estimated
Wed 03:01:00 PM 49.5892 6.2042 126° Southeast  Level Estimated
Wed 03:02:00 PM 49.5344 6.3213 126° Southeast  Level Estimated
Wed 03:03:00 PM 49.4794 6.4382 126° Southeast  Level Estimated
Wed 03:04:00 PM 49.4243 6.5548 126° Southeast  Level Estimated
Wed 03:05:00 PM 49.3691 6.6711 126° Southeast  Level Estimated
Wed 03:06:00 PM 49.3138 6.7871 126° Southeast  Level Estimated
Wed 03:07:00 PM 49.2584 6.9029 126° Southeast  Level Estimated
Wed 03:08:00 PM 49.2028 7.0184 126° Southeast  Level Estimated
Wed 03:09:00 PM 49.1471 7.1337 126° Southeast  Level Estimated
Wed 03:10:00 PM 49.0914 7.2487 126° Southeast  Level Estimated
Wed 03:11:00 PM 49.0355 7.3635 127° Southeast  Level Estimated
Wed 03:12:00 PM 48.9795 7.4780 127° Southeast  Level Estimated
Wed 03:13:00 PM 48.9233 7.5922 127° Southeast  Level Estimated
Wed 03:14:00 PM 48.8671 7.7062 127° Southeast  Level Estimated
Wed 03:15:00 PM 48.8107 7.8200 127° Southeast  Level Estimated
Wed 03:16:00 PM 48.7543 7.9334 127° Southeast  Level Estimated
Wed 03:17:00 PM 48.6977 8.0466 127° Southeast  Level Estimated
Wed 03:18:00 PM 48.6410 8.1596 127° Southeast  Level Estimated
Wed 03:19:00 PM 48.5842 8.2723 127° Southeast  Level Estimated
Wed 03:20:00 PM 48.5273 8.3848 127° Southeast  Level Estimated
Wed 03:21:00 PM 48.4703 8.4970 127° Southeast  Level Estimated
Wed 03:22:00 PM 48.4132 8.6089 128° Southeast  Level Estimated
Wed 03:23:00 PM 48.3560 8.7206 128° Southeast  Level Estimated
Wed 03:24:00 PM 48.2986 8.8321 128° Southeast  Level Estimated
Wed 03:25:00 PM 48.2412 8.9433 128° Southeast  Level Estimated
Wed 03:26:00 PM 48.1837 9.0542 128° Southeast  Level Estimated
Wed 03:27:00 PM 48.1260 9.1649 128° Southeast  Level Estimated
Wed 03:28:00 PM 48.0682 9.2754 128° Southeast  Level Estimated
Wed 03:29:00 PM 48.0104 9.3856 128° Southeast  Level Estimated
Wed 03:30:00 PM 47.9524 9.4955 128° Southeast  Level Estimated
Wed 03:31:00 PM 47.8943 9.6053 128° Southeast  Level Estimated
Wed 03:32:00 PM 47.8361 9.7147 128° Southeast  Level Estimated
Wed 03:33:00 PM 47.7778 9.8239 128° Southeast  Level Estimated
Wed 03:34:00 PM 47.7195 9.9329 129° Southeast  Level Estimated
Wed 03:35:00 PM 47.6610 10.0416 129° Southeast  Level Estimated
Wed 03:36:00 PM 47.6024 10.1501 129° Southeast  Level Estimated
Wed 03:37:00 PM 47.5437 10.2584 129° Southeast  Level Estimated
Wed 03:38:00 PM 47.4849 10.3664 129° Southeast  Level Estimated
Wed 03:39:00 PM 47.4260 10.4741 129° Southeast  Level Estimated
Wed 03:40:00 PM 47.3670 10.5816 129° Southeast  Level Estimated
Wed 03:41:00 PM 47.3079 10.6889 129° Southeast  Level Estimated
Wed 03:42:00 PM 47.2487 10.7960 129° Southeast  Level Estimated
Wed 03:43:00 PM 47.1894 10.9028 129° Southeast  Level Estimated
Wed 03:44:00 PM 47.1300 11.0093 129° Southeast  Level Estimated
Wed 03:45:00 PM 47.0705 11.1156 129° Southeast  Level Estimated
Wed 03:46:00 PM 47.0109 11.2217 129° Southeast  Level Estimated
Wed 03:47:00 PM 46.9512 11.3276 130° Southeast  Level Estimated
Wed 03:48:00 PM 46.8914 11.4332 130° Southeast  Level Estimated
Wed 03:49:00 PM 46.8315 11.5386 130° Southeast  Level Estimated
Wed 03:50:00 PM 46.7715 11.6437 130° Southeast  Level Estimated
Wed 03:51:00 PM 46.7114 11.7486 130° Southeast  Level Estimated
Wed 03:52:00 PM 46.6512 11.8533 130° Southeast  Level Estimated
Wed 03:53:00 PM 46.5910 11.9577 130° Southeast  Level Estimated
Wed 03:54:00 PM 46.5306 12.0619 130° Southeast  Level Estimated
Wed 03:55:00 PM 46.4701 12.1659 130° Southeast  Level Estimated
Wed 03:56:00 PM 46.4096 12.2697 130° Southeast  Level Estimated
Wed 03:57:00 PM 46.3489 12.3732 130° Southeast  Level Estimated
Wed 03:58:00 PM 46.2882 12.4765 130° Southeast  Level Estimated
Wed 03:59:00 PM 46.2274 12.5795 130° Southeast  Level Estimated
Wed 04:00:00 PM 46.1665 12.6824 131° Southeast  Level Estimated
Wed 04:01:00 PM 46.1054 12.7850 131° Southeast  Level Estimated
Wed 04:02:00 PM 46.0443 12.8873 131° Southeast  Level Estimated
Wed 04:03:00 PM 45.9831 12.9895 131° Southeast  Level Estimated
Wed 04:04:00 PM 45.9218 13.0914 131° Southeast  Level Estimated
Wed 04:05:00 PM 45.8590 13.1954 131° Southeast  Level Estimated
Wed 04:06:00 PM 45.7962 13.2992 131° Southeast  Level Estimated
Wed 04:07:00 PM 45.7332 13.4028 131° Southeast  Level Estimated
Wed 04:08:00 PM 45.6701 13.5061 131° Southeast  Level Estimated
Wed 04:09:00 PM 45.6069 13.6092 131° Southeast  Level Estimated
Wed 04:10:00 PM 45.5437 13.7120 131° Southeast  Level Estimated
Wed 04:11:00 PM 45.4804 13.8146 131° Southeast  Level Estimated
Wed 04:12:00 PM 45.4169 13.9170 131° Southeast  Level Estimated
Wed 04:13:00 PM 45.3534 14.0192 131° Southeast  Level Estimated
Wed 04:14:00 PM 45.2898 14.1211 132° Southeast  Level Estimated
Wed 04:15:00 PM 45.2261 14.2228 132° Southeast  Level Estimated
Wed 04:16:00 PM 45.1623 14.3243 132° Southeast  Level Estimated
Wed 04:17:00 PM 45.0984 14.4255 132° Southeast  Level Estimated
Wed 04:18:00 PM 45.0344 14.5266 132° Southeast  Level Estimated
Wed 04:19:00 PM 44.9703 14.6273 132° Southeast  Level Estimated
Wed 04:20:00 PM 44.9062 14.7279 132° Southeast  Level Estimated
Wed 04:21:00 PM 44.8419 14.8283 132° Southeast  Level Estimated
Wed 04:22:00 PM 44.7776 14.9284 132° Southeast  Level Estimated
Wed 04:23:00 PM 44.7132 15.0283 132° Southeast  Level Estimated
Wed 04:24:00 PM 44.6487 15.1280 132° Southeast  Level Estimated
Wed 04:25:00 PM 44.5841 15.2274 132° Southeast  Level Estimated
Wed 04:26:00 PM 44.5194 15.3267 132° Southeast  Level Estimated
Wed 04:27:00 PM 44.4546 15.4257 132° Southeast  Level Estimated
Wed 04:28:00 PM 44.3898 15.5245 133° Southeast  Level Estimated
Wed 04:29:00 PM 44.3248 15.6230 133° Southeast  Level Estimated
Wed 04:30:00 PM 44.2598 15.7214 133° Southeast  Level Estimated
Wed 04:31:00 PM 44.1947 15.8195 133° Southeast  Level Estimated
Wed 04:32:00 PM 44.1295 15.9175 133° Southeast  Level Estimated
Wed 04:33:00 PM 44.0643 16.0152 133° Southeast  Level Estimated
Wed 04:34:00 PM 43.9989 16.1127 133° Southeast  Level Estimated
Wed 04:35:00 PM 43.9335 16.2099 133° Southeast  Level Estimated
Wed 04:36:00 PM 43.8680 16.3070 133° Southeast  Level Estimated
Wed 04:37:00 PM 43.8023 16.4039 133° Southeast  Level Estimated
Wed 04:38:00 PM 43.7367 16.5005 133° Southeast  Level Estimated
Wed 04:39:00 PM 43.6709 16.5969 133° Southeast  Level Estimated
Wed 04:40:00 PM 43.6051 16.6931 133° Southeast  Level Estimated
Wed 04:41:00 PM 43.5391 16.7891 133° Southeast  Level Estimated
Wed 04:42:00 PM 43.4731 16.8849 133° Southeast  Level Estimated
Wed 04:43:00 PM 43.4070 16.9805 134° Southeast  Level Estimated
Wed 04:44:00 PM 43.3409 17.0759 134° Southeast  Level Estimated
Wed 04:45:00 PM 43.2746 17.1710 134° Southeast  Level Estimated
Wed 04:46:00 PM 43.2083 17.2660 134° Southeast  Level Estimated
Wed 04:47:00 PM 43.1419 17.3608 134° Southeast  Level Estimated
Wed 04:48:00 PM 43.0754 17.4553 134° Southeast  Level Estimated
Wed 04:49:00 PM 43.0089 17.5497 134° Southeast  Level Estimated
Wed 04:50:00 PM 42.9422 17.6438 134° Southeast  Level Estimated
Wed 04:51:00 PM 42.8755 17.7377 134° Southeast  Level Estimated
Wed 04:52:00 PM 42.8087 17.8315 134° Southeast  Level Estimated
Wed 04:53:00 PM 42.7419 17.9250 134° Southeast  Level Estimated
Wed 04:54:00 PM 42.6749 18.0183 134° Southeast  Level Estimated
Wed 04:55:00 PM 42.6079 18.1115 134° Southeast  Level Estimated
Wed 04:56:00 PM 42.5408 18.2044 134° Southeast  Level Estimated
Wed 04:57:00 PM 42.4737 18.2971 134° Southeast  Level Estimated
Wed 04:58:00 PM 42.4064 18.3896 135° Southeast  Level Estimated
Wed 04:59:00 PM 42.3391 18.4820 135° Southeast  Level Estimated
Wed 05:00:00 PM 42.2717 18.5741 135° Southeast  Level Estimated
Wed 05:01:00 PM 42.2043 18.6660 135° Southeast  Level Estimated
Wed 05:02:00 PM 42.1367 18.7578 135° Southeast  Level Estimated
Wed 05:03:00 PM 42.0691 18.8493 135° Southeast  Level Estimated
Wed 05:04:00 PM 42.0014 18.9407 135° Southeast  Level Estimated
Wed 05:05:00 PM 41.9337 19.0318 135° Southeast  Level Estimated
Wed 05:06:00 PM 41.8659 19.1228 135° Southeast  Level Estimated
Wed 05:07:00 PM 41.7980 19.2136 135° Southeast  Level Estimated
Wed 05:08:00 PM 41.7300 19.3041 135° Southeast  Level Estimated
Wed 05:09:00 PM 41.6620 19.3945 135° Southeast  Level Estimated
Wed 05:10:00 PM 41.5938 19.4847 135° Southeast  Level Estimated

Login

Don't have an account? Register now (free) for customized features, flight alerts, and more!